createdAt,value
2019-03-29T00:00:49.202Z,70.90
2019-03-29T00:03:17.627Z,70.10
2019-03-29T00:05:46.101Z,69.30
2019-03-29T00:08:14.654Z,69.10
2019-03-29T00:10:43.086Z,70.00
2019-03-29T00:13:14.507Z,70.60
2019-03-29T00:15:41.646Z,71.80
2019-03-29T00:18:10.308Z,72.00
2019-03-29T00:20:38.745Z,71.60
2019-03-29T00:23:07.170Z,72.10
2019-03-29T00:25:35.619Z,72.40
2019-03-29T00:28:04.182Z,73.70
2019-03-29T00:30:32.606Z,73.90
2019-03-29T00:33:01.010Z,73.40
2019-03-29T00:35:29.450Z,74.20
2019-03-29T00:37:57.869Z,74.80
2019-03-29T00:40:26.285Z,75.40
2019-03-29T00:42:54.709Z,75.30
2019-03-29T00:45:23.124Z,76.40
2019-03-29T00:47:51.543Z,77.30
2019-03-29T00:50:19.969Z,77.50
2019-03-29T00:52:48.381Z,77.70
2019-03-29T00:55:16.873Z,78.50
2019-03-29T00:57:45.308Z,78.00
2019-03-29T01:00:13.810Z,77.20
2019-03-29T01:02:42.209Z,77.40
2019-03-29T01:05:10.890Z,76.50
2019-03-29T01:07:39.368Z,77.30
2019-03-29T01:10:08.122Z,77.80
2019-03-29T01:12:36.537Z,77.80
2019-03-29T01:15:08.951Z,78.60
2019-03-29T01:17:37.871Z,78.50
2019-03-29T01:20:07.565Z,79.50
2019-03-29T01:22:35.997Z,79.00
2019-03-29T01:25:08.255Z,79.40
2019-03-29T01:27:37.190Z,80.10
2019-03-29T01:30:07.029Z,81.40
2019-03-29T01:32:35.536Z,82.30
2019-03-29T01:35:06.085Z,82.50
2019-03-29T01:37:34.485Z,82.00
2019-03-29T01:40:03.011Z,83.00
2019-03-29T01:42:31.417Z,83.00
2019-03-29T01:44:59.828Z,84.10
2019-03-29T01:47:28.294Z,84.40
2019-03-29T01:49:56.757Z,83.90
2019-03-29T01:52:25.209Z,84.10
2019-03-29T01:54:53.621Z,83.40
2019-03-29T01:57:22.041Z,84.10
2019-03-29T01:59:50.484Z,85.00
2019-03-29T02:02:18.921Z,85.30
2019-03-29T02:04:47.382Z,84.60
2019-03-29T02:07:15.786Z,83.80
2019-03-29T02:09:44.498Z,83.50
2019-03-29T02:12:12.999Z,83.60
2019-03-29T02:14:41.769Z,85.30
2019-03-29T02:17:10.202Z,85.10
2019-03-29T02:19:38.613Z,85.00
2019-03-29T02:22:07.079Z,85.20
2019-03-29T02:24:35.538Z,85.50
2019-03-29T02:27:04.225Z,87.30
2019-03-29T02:29:32.733Z,86.70
2019-03-29T02:32:01.190Z,86.70
2019-03-29T02:34:29.674Z,86.50
2019-03-29T02:36:58.085Z,87.30
2019-03-29T02:39:27.064Z,86.80
2019-03-29T02:41:55.901Z,87.40
2019-03-29T02:44:24.350Z,87.00
2019-03-29T02:46:53.838Z,87.20
2019-03-29T02:49:22.709Z,86.30
2019-03-29T02:51:51.502Z,85.20
2019-03-29T02:54:19.911Z,86.40
2019-03-29T02:56:48.333Z,85.30
2019-03-29T02:59:16.758Z,85.20
2019-03-29T03:01:45.184Z,85.10
2019-03-29T03:04:13.593Z,86.00
2019-03-29T03:06:42.019Z,85.20
2019-03-29T03:09:14.045Z,85.90
2019-03-29T03:11:40.877Z,86.90
2019-03-29T03:14:09.313Z,86.90
2019-03-29T03:16:37.786Z,87.30
2019-03-29T03:19:06.190Z,87.90
2019-03-29T03:21:34.638Z,87.60
2019-03-29T03:24:03.140Z,87.80
2019-03-29T03:26:31.559Z,88.40
2019-03-29T03:28:59.962Z,88.90
2019-03-29T03:31:28.474Z,89.30
2019-03-29T03:33:56.876Z,89.60
2019-03-29T03:36:25.293Z,90.10
2019-03-29T03:38:53.698Z,89.70
2019-03-29T03:41:22.460Z,89.00
2019-03-29T03:43:50.884Z,89.50
2019-03-29T03:46:19.459Z,90.00
2019-03-29T03:48:47.886Z,90.20
2019-03-29T03:51:16.475Z,90.60
2019-03-29T03:53:44.902Z,90.10
2019-03-29T03:56:16.074Z,90.40
2019-03-29T03:58:45.390Z,90.00
2019-03-29T04:01:14.591Z,89.90
2019-03-29T04:03:42.994Z,89.20
2019-03-29T04:06:11.436Z,89.10
2019-03-29T04:08:39.830Z,88.50
2019-03-29T04:11:08.262Z,88.20
2019-03-29T04:13:36.726Z,88.30
2019-03-29T04:16:05.412Z,87.90
2019-03-29T04:18:34.133Z,87.90
2019-03-29T04:21:02.561Z,86.00
2019-03-29T04:23:31.079Z,85.20
2019-03-29T04:25:59.649Z,85.90
2019-03-29T04:28:28.087Z,88.00
2019-03-29T04:30:56.489Z,87.60
2019-03-29T04:33:24.898Z,87.30
2019-03-29T04:35:53.339Z,87.30
2019-03-29T04:38:21.769Z,86.90
2019-03-29T04:40:50.204Z,86.70
2019-03-29T04:43:18.685Z,86.60
2019-03-29T04:45:47.167Z,86.00
2019-03-29T04:48:15.600Z,86.30
2019-03-29T04:50:44.850Z,86.10
2019-03-29T04:53:13.305Z,87.10
2019-03-29T04:55:41.716Z,88.70
2019-03-29T04:58:10.265Z,87.70
2019-03-29T05:00:38.673Z,87.80
2019-03-29T05:03:07.095Z,86.70
2019-03-29T05:05:35.577Z,86.50
2019-03-29T05:08:03.986Z,87.30
2019-03-29T05:10:32.429Z,89.50
2019-03-29T05:13:00.874Z,90.10
2019-03-29T05:15:29.283Z,90.50
2019-03-29T05:17:57.777Z,90.70
2019-03-29T05:20:26.216Z,90.70
2019-03-29T05:22:54.701Z,90.60
2019-03-29T05:25:23.118Z,90.60
2019-03-29T05:27:51.526Z,90.60
2019-03-29T05:30:20.103Z,90.60
2019-03-29T05:32:48.506Z,90.90
2019-03-29T05:35:16.924Z,91.20
2019-03-29T05:37:45.381Z,91.40
2019-03-29T05:40:13.853Z,91.40
2019-03-29T05:42:42.328Z,91.40
2019-03-29T05:45:11.112Z,91.70
2019-03-29T05:47:39.658Z,91.50
2019-03-29T05:50:08.906Z,91.30
2019-03-29T05:52:37.389Z,91.30
2019-03-29T05:55:07.427Z,91.60
2019-03-29T05:57:35.878Z,91.10
2019-03-29T06:00:10.722Z,91.30
2019-03-29T06:02:39.130Z,91.40
2019-03-29T06:05:07.603Z,91.50
2019-03-29T06:07:36.021Z,91.60
2019-03-29T06:10:10.473Z,91.20
2019-03-29T06:12:39.215Z,91.30
2019-03-29T06:15:07.718Z,91.20
2019-03-29T06:17:47.872Z,91.00
2019-03-29T06:20:07.804Z,90.60
2019-03-29T06:22:36.209Z,90.50
2019-03-29T06:25:07.441Z,90.10
2019-03-29T06:27:35.969Z,90.10
2019-03-29T06:30:06.760Z,90.40
2019-03-29T06:32:35.229Z,89.50
2019-03-29T06:35:05.810Z,89.00
2019-03-29T06:37:36.338Z,87.90
2019-03-29T06:40:08.072Z,86.40
2019-03-29T06:42:36.511Z,84.80
2019-03-29T06:45:06.429Z,82.80
2019-03-29T06:47:34.893Z,81.50
2019-03-29T06:50:04.501Z,80.60
2019-03-29T06:52:32.925Z,77.80
2019-03-29T06:55:01.470Z,76.00
2019-03-29T06:57:29.945Z,75.90
2019-03-29T06:59:58.370Z,73.70
2019-03-29T07:02:26.778Z,72.60
2019-03-29T07:04:55.213Z,69.60
2019-03-29T07:07:23.688Z,70.90
2019-03-29T07:09:52.146Z,70.60
2019-03-29T07:12:20.572Z,69.50
2019-03-29T07:14:49.003Z,71.00
2019-03-29T07:17:17.436Z,70.60
2019-03-29T07:19:47.100Z,69.30
2019-03-29T07:22:16.090Z,69.70
2019-03-29T07:24:44.538Z,68.60
2019-03-29T07:27:12.982Z,66.30
2019-03-29T07:29:41.457Z,63.70
2019-03-29T07:32:09.909Z,60.70
2019-03-29T07:34:38.436Z,64.70
2019-03-29T07:37:06.865Z,65.20
2019-03-29T07:39:35.293Z,63.40
2019-03-29T07:42:03.730Z,61.20
2019-03-29T07:44:32.265Z,60.20
2019-03-29T07:47:00.688Z,58.90
2019-03-29T07:49:29.133Z,58.50
2019-03-29T07:51:57.589Z,58.20
2019-03-29T07:54:26.419Z,57.60
2019-03-29T07:56:54.865Z,57.00
2019-03-29T07:59:23.558Z,55.10
2019-03-29T08:01:52.093Z,55.90
2019-03-29T08:04:21.775Z,57.10
2019-03-29T08:06:50.666Z,55.60
2019-03-29T08:09:22.598Z,55.70
2019-03-29T08:11:49.235Z,56.40
2019-03-29T08:14:17.718Z,55.20
2019-03-29T08:16:46.140Z,53.90
2019-03-29T08:19:14.607Z,53.80
2019-03-29T08:21:43.089Z,52.00
2019-03-29T08:24:11.523Z,51.60
2019-03-29T08:26:40.043Z,50.60
2019-03-29T08:29:08.483Z,49.60
2019-03-29T08:31:36.957Z,50.60
2019-03-29T08:34:05.666Z,50.10
2019-03-29T08:36:34.094Z,50.20
2019-03-29T08:39:02.507Z,50.60
2019-03-29T08:41:30.950Z,50.40
2019-03-29T08:43:59.365Z,49.50
2019-03-29T08:46:27.793Z,48.30
2019-03-29T08:48:56.205Z,47.40
2019-03-29T08:51:24.657Z,47.50
2019-03-29T08:53:53.093Z,47.60
2019-03-29T08:56:21.537Z,47.10
2019-03-29T08:58:49.943Z,48.20
2019-03-29T09:01:19.573Z,47.40
2019-03-29T09:04:01.449Z,46.60
2019-03-29T09:06:18.545Z,46.50
2019-03-29T09:08:47.049Z,46.00
2019-03-29T09:11:15.503Z,46.00
2019-03-29T09:13:43.949Z,46.30
2019-03-29T09:16:12.386Z,47.30
2019-03-29T09:18:40.853Z,46.90
2019-03-29T09:21:09.284Z,46.20
2019-03-29T09:23:37.687Z,45.80
2019-03-29T09:26:06.105Z,45.80
2019-03-29T09:28:34.550Z,45.70
2019-03-29T09:31:02.968Z,45.30
2019-03-29T09:33:31.803Z,45.30
2019-03-29T09:36:00.282Z,45.30
2019-03-29T09:38:28.714Z,45.30
2019-03-29T09:40:59.060Z,45.40
2019-03-29T09:43:27.381Z,45.00
2019-03-29T09:45:55.883Z,44.40
2019-03-29T09:48:24.321Z,43.50
2019-03-29T09:50:52.728Z,42.60
2019-03-29T09:53:21.146Z,41.90
2019-03-29T09:55:53.126Z,42.50
2019-03-29T09:58:19.792Z,42.00
2019-03-29T10:00:49.132Z,41.90
2019-03-29T10:03:17.562Z,41.30
2019-03-29T10:05:46.036Z,40.60
2019-03-29T10:08:14.452Z,39.90
2019-03-29T10:10:42.857Z,40.30
2019-03-29T10:13:11.390Z,40.40
2019-03-29T10:15:39.783Z,40.20
2019-03-29T10:18:08.278Z,38.90
2019-03-29T10:20:36.679Z,37.60
2019-03-29T10:23:05.222Z,36.30
2019-03-29T10:25:33.934Z,35.00
2019-03-29T10:28:02.373Z,34.20
2019-03-29T10:30:38.241Z,35.20
2019-03-29T10:33:06.785Z,35.60
2019-03-29T10:35:50.239Z,37.20
2019-03-29T10:38:06.201Z,36.50
2019-03-29T10:40:34.722Z,36.60
2019-03-29T10:43:03.223Z,35.70
2019-03-29T10:45:31.650Z,35.20
2019-03-29T10:48:00.158Z,33.50
2019-03-29T10:50:28.572Z,34.00
2019-03-29T10:52:57.142Z,34.30
2019-03-29T10:55:25.545Z,32.70
2019-03-29T10:57:54.005Z,33.50
2019-03-29T11:00:33.861Z,35.20
2019-03-29T11:03:02.342Z,36.40
2019-03-29T11:05:30.779Z,37.40
2019-03-29T11:07:59.566Z,36.80
2019-03-29T11:10:36.130Z,36.40
2019-03-29T11:13:12.367Z,36.80
2019-03-29T11:15:35.722Z,34.50
2019-03-29T11:18:05.195Z,34.70
2019-03-29T11:20:33.619Z,34.70
2019-03-29T11:23:02.103Z,34.60
2019-03-29T11:25:30.578Z,35.80
2019-03-29T11:27:59.101Z,36.90
2019-03-29T11:30:41.163Z,37.50
2019-03-29T11:32:57.823Z,35.90
2019-03-29T11:35:26.250Z,36.10
2019-03-29T11:37:54.724Z,36.00
2019-03-29T11:40:23.137Z,35.10
2019-03-29T11:42:51.579Z,35.30
2019-03-29T11:45:20.122Z,33.60
2019-03-29T11:48:09.361Z,33.70
2019-03-29T11:50:38.243Z,32.70
2019-03-29T11:53:06.681Z,31.90
2019-03-29T11:55:35.225Z,32.00
2019-03-29T11:58:03.723Z,31.30
2019-03-29T12:00:36.634Z,30.90
2019-03-29T12:03:08.784Z,31.30
2019-03-29T12:05:36.414Z,32.10
2019-03-29T12:08:05.519Z,32.20
2019-03-29T12:10:34.118Z,32.10
2019-03-29T12:13:02.696Z,32.10
2019-03-29T12:15:31.213Z,32.40
2019-03-29T12:17:59.654Z,31.50
2019-03-29T12:20:28.069Z,31.50
2019-03-29T12:22:56.815Z,31.40
2019-03-29T12:25:25.297Z,30.80
2019-03-29T12:27:53.739Z,30.80
2019-03-29T12:30:31.145Z,30.20
2019-03-29T12:32:52.369Z,30.00
2019-03-29T12:35:20.789Z,30.90
2019-03-29T12:37:49.197Z,32.10
2019-03-29T12:40:17.642Z,30.40
2019-03-29T12:42:46.315Z,30.00
2019-03-29T12:45:14.816Z,30.70
2019-03-29T12:47:43.300Z,31.10
2019-03-29T12:50:12.253Z,30.40
2019-03-29T12:52:40.708Z,30.10
2019-03-29T12:55:10.062Z,30.70
2019-03-29T12:57:39.126Z,31.00
2019-03-29T13:00:08.782Z,30.70
2019-03-29T13:02:37.205Z,29.20
2019-03-29T13:05:06.686Z,28.60
2019-03-29T13:07:35.090Z,29.10
2019-03-29T13:10:08.317Z,28.40
2019-03-29T13:12:36.886Z,27.70
2019-03-29T13:15:07.345Z,29.10
2019-03-29T13:17:35.775Z,29.60
2019-03-29T13:20:08.175Z,29.80
2019-03-29T13:22:36.711Z,29.60
2019-03-29T13:25:07.343Z,29.00
2019-03-29T13:27:35.876Z,29.50
2019-03-29T13:30:08.669Z,28.50
2019-03-29T13:32:37.189Z,27.90
2019-03-29T13:35:08.586Z,27.50
2019-03-29T13:37:37.062Z,27.40
2019-03-29T13:40:07.969Z,27.20
2019-03-29T13:42:36.389Z,27.40
2019-03-29T13:45:06.764Z,27.70
2019-03-29T13:47:36.048Z,27.30
2019-03-29T13:50:07.097Z,27.50
2019-03-29T13:52:35.865Z,27.90
2019-03-29T13:55:05.276Z,27.70
2019-03-29T13:57:33.726Z,27.80
2019-03-29T14:00:02.204Z,27.80
2019-03-29T14:02:30.740Z,27.80
2019-03-29T14:04:59.237Z,28.20
2019-03-29T14:07:27.676Z,28.60
2019-03-29T14:09:56.108Z,29.30
2019-03-29T14:12:24.562Z,30.00
2019-03-29T14:14:53.144Z,30.20
2019-03-29T14:17:22.454Z,31.00
2019-03-29T14:19:50.978Z,30.40
2019-03-29T14:22:19.478Z,30.00
2019-03-29T14:24:49.182Z,29.80
2019-03-29T14:27:17.642Z,29.20
2019-03-29T14:29:46.066Z,29.30
2019-03-29T14:32:14.603Z,29.10
2019-03-29T14:34:43.020Z,28.40
2019-03-29T14:37:11.475Z,28.80
2019-03-29T14:39:39.902Z,28.80
2019-03-29T14:42:08.609Z,28.60
2019-03-29T14:44:37.056Z,28.60
2019-03-29T14:47:05.474Z,28.50
2019-03-29T14:49:33.901Z,28.70
2019-03-29T14:52:02.379Z,29.20
2019-03-29T14:54:30.821Z,28.80
2019-03-29T14:56:59.237Z,28.90
2019-03-29T14:59:27.669Z,28.80
2019-03-29T15:01:56.112Z,28.60
2019-03-29T15:04:24.566Z,28.60
2019-03-29T15:06:52.983Z,28.50
2019-03-29T15:09:21.695Z,28.50
2019-03-29T15:11:50.126Z,28.50
2019-03-29T15:14:18.559Z,28.60
2019-03-29T15:16:46.978Z,28.20
2019-03-29T15:19:15.462Z,28.30
2019-03-29T15:21:43.929Z,28.30
2019-03-29T15:24:12.445Z,28.90
2019-03-29T15:26:40.862Z,29.00
2019-03-29T15:29:09.289Z,29.50
2019-03-29T15:31:37.718Z,29.80
2019-03-29T15:34:06.206Z,29.60
2019-03-29T15:36:34.653Z,29.10
2019-03-29T15:39:03.062Z,27.60
2019-03-29T15:41:31.488Z,28.10
2019-03-29T15:43:59.977Z,28.80
2019-03-29T15:46:28.449Z,28.80
2019-03-29T15:48:58.097Z,29.10
2019-03-29T15:51:26.577Z,29.00
2019-03-29T15:53:55.017Z,28.90
2019-03-29T15:56:23.475Z,28.40
2019-03-29T15:58:51.986Z,27.60
2019-03-29T16:01:20.433Z,28.40
2019-03-29T16:03:48.883Z,28.90
2019-03-29T16:06:17.301Z,29.10
2019-03-29T16:08:45.745Z,28.90
2019-03-29T16:11:17.008Z,29.00
2019-03-29T16:13:44.342Z,29.10
2019-03-29T16:16:12.854Z,29.30
2019-03-29T16:18:41.261Z,29.40
2019-03-29T16:21:09.678Z,29.60
2019-03-29T16:23:38.162Z,29.60
2019-03-29T16:26:06.589Z,29.40
2019-03-29T16:28:35.073Z,29.40
2019-03-29T16:31:04.823Z,29.70
2019-03-29T16:33:33.374Z,29.80
2019-03-29T16:36:01.784Z,29.70
2019-03-29T16:38:30.227Z,29.90
2019-03-29T16:40:58.664Z,30.00
2019-03-29T16:43:27.133Z,30.00
2019-03-29T16:45:55.560Z,30.00
2019-03-29T16:48:23.993Z,30.10
2019-03-29T16:50:52.435Z,30.00
2019-03-29T16:53:20.852Z,30.30
2019-03-29T16:55:49.285Z,30.10
2019-03-29T16:58:17.716Z,30.30
2019-03-29T17:00:46.594Z,30.70
2019-03-29T17:03:15.033Z,30.90
2019-03-29T17:05:43.466Z,31.10
2019-03-29T17:08:12.139Z,31.20
2019-03-29T17:10:40.542Z,31.30
2019-03-29T17:13:09.145Z,31.70
2019-03-29T17:15:37.637Z,31.80
2019-03-29T17:18:06.194Z,31.60
2019-03-29T17:20:34.898Z,31.80
2019-03-29T17:23:03.397Z,32.00
2019-03-29T17:25:31.823Z,32.40
2019-03-29T17:28:00.301Z,33.10
2019-03-29T17:30:37.532Z,32.30
2019-03-29T17:33:06.051Z,32.60
2019-03-29T17:35:34.461Z,32.50
2019-03-29T17:38:02.892Z,32.70
2019-03-29T17:40:31.317Z,32.60
2019-03-29T17:42:59.813Z,32.60
2019-03-29T17:45:28.225Z,32.60
2019-03-29T17:47:56.689Z,32.60
2019-03-29T17:50:25.448Z,32.50
2019-03-29T17:52:54.066Z,32.70
2019-03-29T17:55:22.549Z,32.80
2019-03-29T17:57:51.033Z,32.70
2019-03-29T18:00:21.769Z,32.90
2019-03-29T18:02:50.251Z,32.90
2019-03-29T18:05:18.721Z,33.10
2019-03-29T18:07:47.245Z,33.00
2019-03-29T18:10:15.725Z,33.00
2019-03-29T18:12:44.138Z,33.10
2019-03-29T18:15:13.807Z,33.30
2019-03-29T18:17:42.216Z,33.60
2019-03-29T18:20:11.612Z,33.90
2019-03-29T18:22:40.008Z,34.00
2019-03-29T18:25:08.979Z,34.30
2019-03-29T18:27:37.417Z,34.50
2019-03-29T18:30:11.165Z,34.50
2019-03-29T18:32:39.595Z,34.60
2019-03-29T18:35:08.899Z,34.50
2019-03-29T18:37:37.434Z,35.20
2019-03-29T18:40:07.775Z,35.20
2019-03-29T18:42:36.178Z,35.90
2019-03-29T18:45:06.962Z,35.40
2019-03-29T18:47:35.369Z,35.30
2019-03-29T18:50:05.650Z,35.20
2019-03-29T18:52:34.065Z,35.30
2019-03-29T18:55:02.502Z,35.20
2019-03-29T18:57:30.922Z,35.30
2019-03-29T18:59:59.364Z,35.60
2019-03-29T19:02:27.777Z,35.50
2019-03-29T19:04:56.215Z,35.60
2019-03-29T19:07:29.091Z,35.90
2019-03-29T19:09:57.752Z,35.80
2019-03-29T19:12:26.189Z,36.30
2019-03-29T19:14:54.659Z,36.20
2019-03-29T19:17:23.526Z,36.40
2019-03-29T19:19:51.933Z,36.80
2019-03-29T19:22:20.402Z,37.80
2019-03-29T19:24:48.872Z,37.10
2019-03-29T19:27:17.389Z,36.90
2019-03-29T19:29:45.837Z,37.10
2019-03-29T19:32:14.296Z,37.50
2019-03-29T19:34:42.725Z,37.70
2019-03-29T19:37:12.114Z,38.10
2019-03-29T19:39:40.544Z,37.70
2019-03-29T19:42:08.962Z,37.80
2019-03-29T19:44:37.389Z,37.90
2019-03-29T19:47:13.457Z,37.80
2019-03-29T19:49:36.470Z,38.10
2019-03-29T19:52:04.893Z,38.00
2019-03-29T19:54:33.368Z,38.30
2019-03-29T19:57:01.845Z,38.60
2019-03-29T19:59:30.292Z,38.60
2019-03-29T20:01:58.767Z,38.70
2019-03-29T20:04:27.249Z,39.00
2019-03-29T20:06:55.675Z,39.20
2019-03-29T20:09:24.169Z,39.40
2019-03-29T20:11:52.589Z,39.40
2019-03-29T20:14:21.008Z,39.60
2019-03-29T20:16:49.534Z,39.90
2019-03-29T20:19:20.067Z,40.00
2019-03-29T20:21:50.733Z,40.30
2019-03-29T20:24:19.205Z,40.40
2019-03-29T20:26:47.718Z,40.20
2019-03-29T20:29:16.148Z,40.30
2019-03-29T20:31:44.557Z,40.50
2019-03-29T20:34:13.027Z,40.60
2019-03-29T20:36:41.490Z,40.70
2019-03-29T20:39:10.010Z,40.50
2019-03-29T20:41:38.452Z,40.50
2019-03-29T20:44:06.932Z,40.40
2019-03-29T20:46:35.337Z,40.00
2019-03-29T20:49:03.790Z,40.30
2019-03-29T20:51:32.224Z,40.30
2019-03-29T20:54:00.660Z,40.40
2019-03-29T20:56:29.101Z,40.80
2019-03-29T20:58:57.850Z,40.90
2019-03-29T21:01:26.296Z,40.80
2019-03-29T21:03:54.820Z,41.00
2019-03-29T21:06:23.270Z,41.20
2019-03-29T21:08:51.679Z,41.80
2019-03-29T21:11:20.179Z,41.60
2019-03-29T21:13:48.685Z,41.80
2019-03-29T21:16:17.323Z,41.60
2019-03-29T21:18:45.789Z,41.50
2019-03-29T21:21:14.394Z,41.90
2019-03-29T21:23:42.854Z,42.20
2019-03-29T21:26:11.289Z,42.30
2019-03-29T21:28:39.714Z,42.60
2019-03-29T21:31:08.198Z,42.90
2019-03-29T21:33:36.649Z,43.10
2019-03-29T21:36:05.235Z,43.40
2019-03-29T21:38:33.698Z,43.50
2019-03-29T21:41:02.128Z,43.50
2019-03-29T21:43:30.556Z,43.60
2019-03-29T21:45:59.324Z,43.70
2019-03-29T21:48:29.191Z,44.10
2019-03-29T21:50:57.883Z,44.30
2019-03-29T21:53:26.322Z,46.10
2019-03-29T21:55:55.107Z,46.50
2019-03-29T21:58:23.629Z,47.00
2019-03-29T22:00:52.106Z,47.10
2019-03-29T22:03:20.575Z,47.00
2019-03-29T22:05:48.990Z,47.40
2019-03-29T22:08:18.067Z,47.60
2019-03-29T22:10:46.709Z,48.30
2019-03-29T22:13:15.161Z,49.00
2019-03-29T22:15:43.884Z,49.40
2019-03-29T22:18:12.394Z,49.70
2019-03-29T22:20:41.388Z,50.30
2019-03-29T22:23:09.861Z,50.80
2019-03-29T22:25:38.308Z,51.40
2019-03-29T22:28:06.758Z,51.70
2019-03-29T22:30:35.304Z,51.70
2019-03-29T22:33:04.137Z,51.70
2019-03-29T22:35:33.083Z,52.20
2019-03-29T22:38:01.504Z,52.40
2019-03-29T22:40:30.073Z,53.40
2019-03-29T22:42:58.525Z,53.00
2019-03-29T22:45:26.977Z,52.90
2019-03-29T22:47:55.498Z,52.90
2019-03-29T22:50:24.015Z,53.20
2019-03-29T22:52:54.542Z,53.40
2019-03-29T22:55:22.595Z,53.20
2019-03-29T22:57:52.832Z,53.20
2019-03-29T23:00:29.066Z,53.70
2019-03-29T23:02:57.542Z,53.60
2019-03-29T23:05:26.046Z,53.30
2019-03-29T23:07:54.500Z,53.90
2019-03-29T23:10:22.957Z,54.40
2019-03-29T23:12:51.398Z,54.60
2019-03-29T23:15:19.830Z,55.20
2019-03-29T23:17:48.276Z,54.60
2019-03-29T23:20:16.780Z,54.90
2019-03-29T23:22:45.207Z,55.00
2019-03-29T23:25:13.699Z,55.20
2019-03-29T23:27:42.122Z,55.00
2019-03-29T23:30:11.045Z,55.80
2019-03-29T23:32:39.939Z,55.50
2019-03-29T23:35:09.565Z,55.20
2019-03-29T23:37:38.215Z,55.30
2019-03-29T23:40:06.857Z,55.00
2019-03-29T23:42:35.284Z,55.60
2019-03-29T23:45:05.536Z,56.10
2019-03-29T23:47:34.066Z,56.70
2019-03-29T23:50:02.496Z,56.80
2019-03-29T23:52:30.929Z,56.50
2019-03-29T23:54:59.669Z,56.10
2019-03-29T23:57:28.093Z,56.60
2019-03-29T23:59:56.510Z,56.20
